sensor_id;sensor_type;location;lat;lon;timestamp;temperature;humidity
44747;DHT22;30472;49.490;10.972;2023-05-29T00:01:32;12.10;99.90
44747;DHT22;30472;49.490;10.972;2023-05-29T00:03:57;12.00;99.90
44747;DHT22;30472;49.490;10.972;2023-05-29T00:06:23;12.00;99.90
44747;DHT22;30472;49.490;10.972;2023-05-29T00:08:49;11.90;99.90
44747;DHT22;30472;49.490;10.972;2023-05-29T00:11:15;11.80;99.90
44747;DHT22;30472;49.490;10.972;2023-05-29T00:13:41;11.80;99.90
44747;DHT22;30472;49.490;10.972;2023-05-29T00:16:06;11.80;99.90
44747;DHT22;30472;49.490;10.972;2023-05-29T00:18:34;11.70;99.90
44747;DHT22;30472;49.490;10.972;2023-05-29T00:21:00;11.70;99.90
44747;DHT22;30472;49.490;10.972;2023-05-29T00:23:26;11.70;99.90
44747;DHT22;30472;49.490;10.972;2023-05-29T00:25:51;11.60;99.90
44747;DHT22;30472;49.490;10.972;2023-05-29T00:28:17;11.60;99.90
44747;DHT22;30472;49.490;10.972;2023-05-29T00:30:42;11.50;99.90
44747;DHT22;30472;49.490;10.972;2023-05-29T00:33:08;11.50;99.90
44747;DHT22;30472;49.490;10.972;2023-05-29T00:35:33;11.50;99.90
44747;DHT22;30472;49.490;10.972;2023-05-29T00:37:59;11.50;99.90
44747;DHT22;30472;49.490;10.972;2023-05-29T00:40:25;11.60;99.90
44747;DHT22;30472;49.490;10.972;2023-05-29T00:42:51;11.60;99.90
44747;DHT22;30472;49.490;10.972;2023-05-29T00:45:17;11.60;99.90
44747;DHT22;30472;49.490;10.972;2023-05-29T00:47:42;11.60;99.90
44747;DHT22;30472;49.490;10.972;2023-05-29T00:50:11;11.60;99.90
44747;DHT22;30472;49.490;10.972;2023-05-29T00:52:39;11.80;99.90
44747;DHT22;30472;49.490;10.972;2023-05-29T00:55:06;11.80;99.90
44747;DHT22;30472;49.490;10.972;2023-05-29T00:57:33;11.70;99.90
44747;DHT22;30472;49.490;10.972;2023-05-29T01:00:00;11.60;99.90
44747;DHT22;30472;49.490;10.972;2023-05-29T01:02:28;11.60;99.90
44747;DHT22;30472;49.490;10.972;2023-05-29T01:04:56;11.70;99.90
44747;DHT22;30472;49.490;10.972;2023-05-29T01:07:22;11.60;99.90
44747;DHT22;30472;49.490;10.972;2023-05-29T01:09:48;11.50;99.90
44747;DHT22;30472;49.490;10.972;2023-05-29T01:15:01;11.40;99.90
44747;DHT22;30472;49.490;10.972;2023-05-29T01:25:56;11.20;99.90
44747;DHT22;30472;49.490;10.972;2023-05-29T01:28:25;11.10;99.90
44747;DHT22;30472;49.490;10.972;2023-05-29T01:30:54;11.10;99.90
44747;DHT22;30472;49.490;10.972;2023-05-29T01:33:19;11.00;99.90
44747;DHT22;30472;49.490;10.972;2023-05-29T01:35:45;11.00;99.90
44747;DHT22;30472;49.490;10.972;2023-05-29T01:38:11;10.90;99.90
44747;DHT22;30472;49.490;10.972;2023-05-29T01:40:37;11.00;99.90
44747;DHT22;30472;49.490;10.972;2023-05-29T01:43:03;11.00;99.90
44747;DHT22;30472;49.490;10.972;2023-05-29T01:45:29;10.90;99.90
44747;DHT22;30472;49.490;10.972;2023-05-29T01:47:55;10.90;99.90
44747;DHT22;30472;49.490;10.972;2023-05-29T01:50:22;10.80;99.90
44747;DHT22;30472;49.490;10.972;2023-05-29T01:52:48;10.90;99.90
44747;DHT22;30472;49.490;10.972;2023-05-29T01:55:14;10.80;99.90
44747;DHT22;30472;49.490;10.972;2023-05-29T01:57:41;10.80;99.90
44747;DHT22;30472;49.490;10.972;2023-05-29T02:00:07;10.70;99.90
44747;DHT22;30472;49.490;10.972;2023-05-29T02:02:41;10.70;99.90
44747;DHT22;30472;49.490;10.972;2023-05-29T02:05:08;10.70;99.90
44747;DHT22;30472;49.490;10.972;2023-05-29T02:07:34;10.60;99.90
44747;DHT22;30472;49.490;10.972;2023-05-29T02:10:05;10.50;99.90
44747;DHT22;30472;49.490;10.972;2023-05-29T02:12:30;10.50;99.90
44747;DHT22;30472;49.490;10.972;2023-05-29T02:14:56;10.40;99.90
44747;DHT22;30472;49.490;10.972;2023-05-29T02:17:22;10.40;99.90
44747;DHT22;30472;49.490;10.972;2023-05-29T02:19:48;10.30;99.90
44747;DHT22;30472;49.490;10.972;2023-05-29T02:22:13;10.30;99.90
44747;DHT22;30472;49.490;10.972;2023-05-29T02:24:39;10.30;99.90
44747;DHT22;30472;49.490;10.972;2023-05-29T02:27:05;10.20;99.90
44747;DHT22;30472;49.490;10.972;2023-05-29T02:29:30;10.20;99.90
44747;DHT22;30472;49.490;10.972;2023-05-29T02:31:56;10.10;99.90
44747;DHT22;30472;49.490;10.972;2023-05-29T02:34:21;10.10;99.90
44747;DHT22;30472;49.490;10.972;2023-05-29T02:36:50;10.10;99.90
44747;DHT22;30472;49.490;10.972;2023-05-29T02:39:20;10.10;99.90
44747;DHT22;30472;49.490;10.972;2023-05-29T02:41:46;10.10;99.90
44747;DHT22;30472;49.490;10.972;2023-05-29T02:44:11;10.00;99.90
44747;DHT22;30472;49.490;10.972;2023-05-29T02:46:37;10.00;99.90
44747;DHT22;30472;49.490;10.972;2023-05-29T02:49:02;9.90;99.90
44747;DHT22;30472;49.490;10.972;2023-05-29T02:51:28;9.90;99.90
44747;DHT22;30472;49.490;10.972;2023-05-29T02:53:54;9.90;99.90
44747;DHT22;30472;49.490;10.972;2023-05-29T02:56:19;9.80;99.90
44747;DHT22;30472;49.490;10.972;2023-05-29T02:58:50;9.80;99.90
44747;DHT22;30472;49.490;10.972;2023-05-29T03:01:16;9.80;99.90
44747;DHT22;30472;49.490;10.972;2023-05-29T03:03:42;9.70;99.90
44747;DHT22;30472;49.490;10.972;2023-05-29T03:06:07;9.80;99.90
44747;DHT22;30472;49.490;10.972;2023-05-29T03:08:34;9.80;99.90
44747;DHT22;30472;49.490;10.972;2023-05-29T03:10:59;9.70;99.90
44747;DHT22;30472;49.490;10.972;2023-05-29T03:13:25;9.70;99.90
44747;DHT22;30472;49.490;10.972;2023-05-29T03:15:51;9.60;99.90
44747;DHT22;30472;49.490;10.972;2023-05-29T03:18:16;9.60;99.90
44747;DHT22;30472;49.490;10.972;2023-05-29T03:20:42;9.60;99.90
44747;DHT22;30472;49.490;10.972;2023-05-29T03:23:07;9.50;99.90
44747;DHT22;30472;49.490;10.972;2023-05-29T03:25:33;9.50;99.90
44747;DHT22;30472;49.490;10.972;2023-05-29T03:27:58;9.50;99.90
44747;DHT22;30472;49.490;10.972;2023-05-29T03:30:24;9.50;99.90
44747;DHT22;30472;49.490;10.972;2023-05-29T03:32:49;9.50;99.90
44747;DHT22;30472;49.490;10.972;2023-05-29T03:35:15;9.60;99.90
44747;DHT22;30472;49.490;10.972;2023-05-29T03:37:41;9.60;99.90
44747;DHT22;30472;49.490;10.972;2023-05-29T03:40:07;9.60;99.90
44747;DHT22;30472;49.490;10.972;2023-05-29T03:42:33;9.60;99.90
44747;DHT22;30472;49.490;10.972;2023-05-29T03:44:59;9.60;99.90
44747;DHT22;30472;49.490;10.972;2023-05-29T03:47:25;9.60;99.90
44747;DHT22;30472;49.490;10.972;2023-05-29T03:49:50;9.60;99.90
44747;DHT22;30472;49.490;10.972;2023-05-29T03:52:16;9.60;99.90
44747;DHT22;30472;49.490;10.972;2023-05-29T03:54:42;9.60;99.90
44747;DHT22;30472;49.490;10.972;2023-05-29T03:57:07;9.60;99.90
44747;DHT22;30472;49.490;10.972;2023-05-29T03:59:34;9.60;99.90
44747;DHT22;30472;49.490;10.972;2023-05-29T04:01:59;9.60;99.90
44747;DHT22;30472;49.490;10.972;2023-05-29T04:04:25;9.60;99.90
44747;DHT22;30472;49.490;10.972;2023-05-29T04:06:52;9.60;99.90
44747;DHT22;30472;49.490;10.972;2023-05-29T04:09:17;9.70;99.90
44747;DHT22;30472;49.490;10.972;2023-05-29T04:11:43;9.70;99.90
44747;DHT22;30472;49.490;10.972;2023-05-29T04:14:10;9.70;99.90
44747;DHT22;30472;49.490;10.972;2023-05-29T04:16:35;9.70;99.90
44747;DHT22;30472;49.490;10.972;2023-05-29T04:19:01;9.80;99.90
44747;DHT22;30472;49.490;10.972;2023-05-29T04:21:26;9.80;99.90
44747;DHT22;30472;49.490;10.972;2023-05-29T04:23:52;9.90;99.90
44747;DHT22;30472;49.490;10.972;2023-05-29T04:26:21;10.00;99.90
44747;DHT22;30472;49.490;10.972;2023-05-29T04:28:50;10.10;99.90
44747;DHT22;30472;49.490;10.972;2023-05-29T04:31:18;10.20;99.90
44747;DHT22;30472;49.490;10.972;2023-05-29T04:33:43;10.20;99.90
44747;DHT22;30472;49.490;10.972;2023-05-29T04:36:10;10.30;99.90
44747;DHT22;30472;49.490;10.972;2023-05-29T04:38:36;10.40;99.90
44747;DHT22;30472;49.490;10.972;2023-05-29T04:41:02;10.50;99.90
44747;DHT22;30472;49.490;10.972;2023-05-29T04:43:28;10.60;99.90
44747;DHT22;30472;49.490;10.972;2023-05-29T04:45:53;10.70;99.90
44747;DHT22;30472;49.490;10.972;2023-05-29T04:48:19;10.80;99.90
44747;DHT22;30472;49.490;10.972;2023-05-29T04:50:44;10.80;99.90
44747;DHT22;30472;49.490;10.972;2023-05-29T04:53:11;10.90;99.90
44747;DHT22;30472;49.490;10.972;2023-05-29T04:55:36;11.00;99.90
44747;DHT22;30472;49.490;10.972;2023-05-29T04:58:02;11.10;99.90
44747;DHT22;30472;49.490;10.972;2023-05-29T05:00:27;11.20;99.90
44747;DHT22;30472;49.490;10.972;2023-05-29T05:02:53;11.30;99.90
44747;DHT22;30472;49.490;10.972;2023-05-29T05:05:19;11.40;99.90
44747;DHT22;30472;49.490;10.972;2023-05-29T05:07:45;11.50;99.90
44747;DHT22;30472;49.490;10.972;2023-05-29T05:10:11;11.60;99.90
44747;DHT22;30472;49.490;10.972;2023-05-29T05:12:37;11.80;99.90
44747;DHT22;30472;49.490;10.972;2023-05-29T05:15:03;11.90;99.90
44747;DHT22;30472;49.490;10.972;2023-05-29T05:17:28;11.90;99.90
44747;DHT22;30472;49.490;10.972;2023-05-29T05:19:54;12.10;99.90
44747;DHT22;30472;49.490;10.972;2023-05-29T05:22:20;12.10;99.90
44747;DHT22;30472;49.490;10.972;2023-05-29T05:24:45;12.20;99.90
44747;DHT22;30472;49.490;10.972;2023-05-29T05:27:11;12.30;99.90
44747;DHT22;30472;49.490;10.972;2023-05-29T05:29:36;12.50;99.90
44747;DHT22;30472;49.490;10.972;2023-05-29T05:32:02;12.60;99.90
44747;DHT22;30472;49.490;10.972;2023-05-29T05:34:28;12.70;99.90
44747;DHT22;30472;49.490;10.972;2023-05-29T05:36:53;12.90;99.90
44747;DHT22;30472;49.490;10.972;2023-05-29T05:39:19;12.90;99.90
44747;DHT22;30472;49.490;10.972;2023-05-29T05:41:44;13.00;99.90
44747;DHT22;30472;49.490;10.972;2023-05-29T05:44:10;13.20;99.90
44747;DHT22;30472;49.490;10.972;2023-05-29T05:46:35;13.30;99.90
44747;DHT22;30472;49.490;10.972;2023-05-29T05:49:01;13.40;99.90
44747;DHT22;30472;49.490;10.972;2023-05-29T05:51:27;13.50;99.90
44747;DHT22;30472;49.490;10.972;2023-05-29T05:53:53;13.70;99.90
44747;DHT22;30472;49.490;10.972;2023-05-29T05:56:18;13.80;99.90
44747;DHT22;30472;49.490;10.972;2023-05-29T05:58:44;13.90;99.90
44747;DHT22;30472;49.490;10.972;2023-05-29T06:01:10;13.90;99.90
44747;DHT22;30472;49.490;10.972;2023-05-29T06:03:35;14.10;99.90
44747;DHT22;30472;49.490;10.972;2023-05-29T06:06:03;14.20;99.90
44747;DHT22;30472;49.490;10.972;2023-05-29T06:08:28;14.20;99.90
44747;DHT22;30472;49.490;10.972;2023-05-29T06:10:55;14.40;99.90
44747;DHT22;30472;49.490;10.972;2023-05-29T06:13:20;14.60;99.90
44747;DHT22;30472;49.490;10.972;2023-05-29T06:15:46;14.80;99.90
44747;DHT22;30472;49.490;10.972;2023-05-29T06:18:12;15.00;99.90
44747;DHT22;30472;49.490;10.972;2023-05-29T06:20:38;15.20;99.90
44747;DHT22;30472;49.490;10.972;2023-05-29T06:23:03;16.00;99.90
44747;DHT22;30472;49.490;10.972;2023-05-29T06:25:30;17.30;99.90
44747;DHT22;30472;49.490;10.972;2023-05-29T06:28:02;18.20;99.90
44747;DHT22;30472;49.490;10.972;2023-05-29T06:30:29;19.10;99.90
44747;DHT22;30472;49.490;10.972;2023-05-29T06:32:55;19.80;99.90
44747;DHT22;30472;49.490;10.972;2023-05-29T06:35:20;19.80;99.90
44747;DHT22;30472;49.490;10.972;2023-05-29T06:37:46;20.70;99.90
44747;DHT22;30472;49.490;10.972;2023-05-29T06:40:14;21.00;99.90
44747;DHT22;30472;49.490;10.972;2023-05-29T06:42:41;21.10;99.90
44747;DHT22;30472;49.490;10.972;2023-05-29T06:45:13;21.50;99.90
44747;DHT22;30472;49.490;10.972;2023-05-29T06:47:39;21.60;99.90
44747;DHT22;30472;49.490;10.972;2023-05-29T06:50:06;22.10;99.90
44747;DHT22;30472;49.490;10.972;2023-05-29T06:52:32;22.30;99.90
44747;DHT22;30472;49.490;10.972;2023-05-29T06:54:57;22.50;99.90
44747;DHT22;30472;49.490;10.972;2023-05-29T06:57:23;22.80;99.90
44747;DHT22;30472;49.490;10.972;2023-05-29T06:59:48;23.00;99.90
44747;DHT22;30472;49.490;10.972;2023-05-29T07:02:14;23.30;99.90
44747;DHT22;30472;49.490;10.972;2023-05-29T07:04:39;23.70;99.90
44747;DHT22;30472;49.490;10.972;2023-05-29T07:07:05;23.70;99.90
44747;DHT22;30472;49.490;10.972;2023-05-29T07:09:30;23.80;99.90
44747;DHT22;30472;49.490;10.972;2023-05-29T07:11:56;24.40;99.90
44747;DHT22;30472;49.490;10.972;2023-05-29T07:14:22;23.90;99.90
44747;DHT22;30472;49.490;10.972;2023-05-29T07:16:47;23.80;99.90
44747;DHT22;30472;49.490;10.972;2023-05-29T07:19:13;24.40;99.90
44747;DHT22;30472;49.490;10.972;2023-05-29T07:21:39;24.70;99.90
44747;DHT22;30472;49.490;10.972;2023-05-29T07:24:05;24.40;99.90
44747;DHT22;30472;49.490;10.972;2023-05-29T07:26:31;24.60;99.90
44747;DHT22;30472;49.490;10.972;2023-05-29T07:28:57;25.30;99.90
44747;DHT22;30472;49.490;10.972;2023-05-29T07:31:23;25.60;99.90
44747;DHT22;30472;49.490;10.972;2023-05-29T07:33:48;25.60;99.90
44747;DHT22;30472;49.490;10.972;2023-05-29T07:36:16;25.60;99.90
44747;DHT22;30472;49.490;10.972;2023-05-29T07:38:43;25.30;99.90
44747;DHT22;30472;49.490;10.972;2023-05-29T07:41:09;26.00;99.90
44747;DHT22;30472;49.490;10.972;2023-05-29T07:43:34;26.20;99.90
44747;DHT22;30472;49.490;10.972;2023-05-29T07:46:00;26.10;99.90
44747;DHT22;30472;49.490;10.972;2023-05-29T07:48:25;26.50;99.90
44747;DHT22;30472;49.490;10.972;2023-05-29T07:50:51;26.50;99.90
44747;DHT22;30472;49.490;10.972;2023-05-29T07:53:17;26.60;99.90
44747;DHT22;30472;49.490;10.972;2023-05-29T07:55:43;25.80;99.90
44747;DHT22;30472;49.490;10.972;2023-05-29T07:58:08;26.80;99.90
44747;DHT22;30472;49.490;10.972;2023-05-29T08:00:36;27.00;99.90
44747;DHT22;30472;49.490;10.972;2023-05-29T08:03:03;26.60;99.90
44747;DHT22;30472;49.490;10.972;2023-05-29T08:05:29;26.80;99.90
44747;DHT22;30472;49.490;10.972;2023-05-29T08:07:56;27.30;99.90
44747;DHT22;30472;49.490;10.972;2023-05-29T08:10:21;26.90;99.90
44747;DHT22;30472;49.490;10.972;2023-05-29T08:12:47;27.20;99.90
44747;DHT22;30472;49.490;10.972;2023-05-29T08:15:14;27.50;97.40
44747;DHT22;30472;49.490;10.972;2023-05-29T08:17:40;27.20;95.30
44747;DHT22;30472;49.490;10.972;2023-05-29T08:20:06;26.50;98.60
44747;DHT22;30472;49.490;10.972;2023-05-29T08:22:32;26.30;96.60
44747;DHT22;30472;49.490;10.972;2023-05-29T08:24:59;26.90;96.80
44747;DHT22;30472;49.490;10.972;2023-05-29T08:27:24;26.50;95.60
44747;DHT22;30472;49.490;10.972;2023-05-29T08:29:50;27.30;95.90
44747;DHT22;30472;49.490;10.972;2023-05-29T08:32:16;27.80;95.30
44747;DHT22;30472;49.490;10.972;2023-05-29T08:34:41;27.80;93.60
44747;DHT22;30472;49.490;10.972;2023-05-29T08:37:07;27.30;93.70
44747;DHT22;30472;49.490;10.972;2023-05-29T08:39:33;27.40;94.60
44747;DHT22;30472;49.490;10.972;2023-05-29T08:42:04;27.80;92.60
44747;DHT22;30472;49.490;10.972;2023-05-29T08:44:33;27.80;92.40
44747;DHT22;30472;49.490;10.972;2023-05-29T08:47:03;27.90;92.70
44747;DHT22;30472;49.490;10.972;2023-05-29T08:49:43;27.50;92.20
44747;DHT22;30472;49.490;10.972;2023-05-29T08:52:29;27.00;92.80
44747;DHT22;30472;49.490;10.972;2023-05-29T08:55:00;27.70;91.90
44747;DHT22;30472;49.490;10.972;2023-05-29T08:57:30;27.20;92.20
44747;DHT22;30472;49.490;10.972;2023-05-29T08:59:56;26.90;91.70
44747;DHT22;30472;49.490;10.972;2023-05-29T09:02:23;26.90;91.80
44747;DHT22;30472;49.490;10.972;2023-05-29T09:04:48;27.70;92.40
44747;DHT22;30472;49.490;10.972;2023-05-29T09:07:17;28.00;93.60
44747;DHT22;30472;49.490;10.972;2023-05-29T09:09:45;27.60;92.00
44747;DHT22;30472;49.490;10.972;2023-05-29T09:12:10;27.10;92.10
44747;DHT22;30472;49.490;10.972;2023-05-29T09:14:41;26.80;91.20
44747;DHT22;30472;49.490;10.972;2023-05-29T09:17:09;27.20;91.40
44747;DHT22;30472;49.490;10.972;2023-05-29T09:19:35;27.70;92.40
44747;DHT22;30472;49.490;10.972;2023-05-29T09:22:05;27.90;92.70
44747;DHT22;30472;49.490;10.972;2023-05-29T09:24:34;28.00;92.90
44747;DHT22;30472;49.490;10.972;2023-05-29T09:27:02;26.80;90.10
44747;DHT22;30472;49.490;10.972;2023-05-29T09:29:33;26.90;91.30
44747;DHT22;30472;49.490;10.972;2023-05-29T09:31:59;27.20;90.60
44747;DHT22;30472;49.490;10.972;2023-05-29T09:34:25;27.00;89.20
44747;DHT22;30472;49.490;10.972;2023-05-29T09:36:53;26.50;90.50
44747;DHT22;30472;49.490;10.972;2023-05-29T09:39:19;26.80;90.70
44747;DHT22;30472;49.490;10.972;2023-05-29T09:41:45;26.10;89.30
44747;DHT22;30472;49.490;10.972;2023-05-29T09:44:14;26.70;91.30
44747;DHT22;30472;49.490;10.972;2023-05-29T09:46:41;27.10;90.30
44747;DHT22;30472;49.490;10.972;2023-05-29T09:49:12;27.20;91.70
44747;DHT22;30472;49.490;10.972;2023-05-29T09:51:38;27.90;91.30
44747;DHT22;30472;49.490;10.972;2023-05-29T09:54:17;27.30;90.00
44747;DHT22;30472;49.490;10.972;2023-05-29T09:56:43;27.40;88.50
44747;DHT22;30472;49.490;10.972;2023-05-29T09:59:13;27.30;90.30
44747;DHT22;30472;49.490;10.972;2023-05-29T10:01:43;27.30;90.40
44747;DHT22;30472;49.490;10.972;2023-05-29T10:04:10;27.40;90.60
44747;DHT22;30472;49.490;10.972;2023-05-29T10:06:45;26.10;91.50
44747;DHT22;30472;49.490;10.972;2023-05-29T10:09:13;26.80;90.80
44747;DHT22;30472;49.490;10.972;2023-05-29T10:11:43;27.00;90.50
44747;DHT22;30472;49.490;10.972;2023-05-29T10:14:10;27.00;90.50
44747;DHT22;30472;49.490;10.972;2023-05-29T10:16:42;26.80;89.50
44747;DHT22;30472;49.490;10.972;2023-05-29T10:19:12;26.50;90.50
44747;DHT22;30472;49.490;10.972;2023-05-29T10:21:40;27.10;92.70
44747;DHT22;30472;49.490;10.972;2023-05-29T10:24:07;27.10;88.10
44747;DHT22;30472;49.490;10.972;2023-05-29T10:26:39;26.70;90.90
44747;DHT22;30472;49.490;10.972;2023-05-29T10:29:27;26.80;90.20
44747;DHT22;30472;49.490;10.972;2023-05-29T10:32:16;27.00;92.90
44747;DHT22;30472;49.490;10.972;2023-05-29T10:37:41;27.40;91.20
44747;DHT22;30472;49.490;10.972;2023-05-29T10:40:09;27.70;90.20
44747;DHT22;30472;49.490;10.972;2023-05-29T10:42:43;27.40;89.10
44747;DHT22;30472;49.490;10.972;2023-05-29T10:45:09;27.10;90.60
44747;DHT22;30472;49.490;10.972;2023-05-29T10:47:37;27.30;89.60
44747;DHT22;30472;49.490;10.972;2023-05-29T10:50:04;27.20;88.10
44747;DHT22;30472;49.490;10.972;2023-05-29T10:52:34;27.20;87.30
44747;DHT22;30472;49.490;10.972;2023-05-29T10:55:01;26.90;88.10
44747;DHT22;30472;49.490;10.972;2023-05-29T10:57:29;27.30;90.80
44747;DHT22;30472;49.490;10.972;2023-05-29T11:00:02;27.50;86.80
44747;DHT22;30472;49.490;10.972;2023-05-29T11:02:30;27.50;90.50
44747;DHT22;30472;49.490;10.972;2023-05-29T11:07:56;27.80;88.30
44747;DHT22;30472;49.490;10.972;2023-05-29T11:10:44;27.90;86.50
44747;DHT22;30472;49.490;10.972;2023-05-29T11:13:11;27.80;89.00
44747;DHT22;30472;49.490;10.972;2023-05-29T11:15:37;27.80;88.50
44747;DHT22;30472;49.490;10.972;2023-05-29T11:18:06;27.70;90.20
44747;DHT22;30472;49.490;10.972;2023-05-29T11:20:55;27.40;86.10
44747;DHT22;30472;49.490;10.972;2023-05-29T11:23:22;27.40;83.30
44747;DHT22;30472;49.490;10.972;2023-05-29T11:25:51;27.40;84.00
44747;DHT22;30472;49.490;10.972;2023-05-29T11:28:16;27.90;90.10
44747;DHT22;30472;49.490;10.972;2023-05-29T11:30:46;27.70;84.50
44747;DHT22;30472;49.490;10.972;2023-05-29T11:33:24;27.40;82.60
44747;DHT22;30472;49.490;10.972;2023-05-29T11:35:58;27.10;80.90
44747;DHT22;30472;49.490;10.972;2023-05-29T11:38:25;26.90;85.10
44747;DHT22;30472;49.490;10.972;2023-05-29T11:40:55;27.20;84.10
44747;DHT22;30472;49.490;10.972;2023-05-29T11:43:22;27.40;82.30
44747;DHT22;30472;49.490;10.972;2023-05-29T11:45:48;27.70;82.80
44747;DHT22;30472;49.490;10.972;2023-05-29T11:48:13;27.30;81.80
44747;DHT22;30472;49.490;10.972;2023-05-29T11:50:40;27.60;84.50
44747;DHT22;30472;49.490;10.972;2023-05-29T11:53:07;27.50;80.30
44747;DHT22;30472;49.490;10.972;2023-05-29T11:55:34;27.30;82.90
44747;DHT22;30472;49.490;10.972;2023-05-29T11:58:01;27.50;81.20
44747;DHT22;30472;49.490;10.972;2023-05-29T12:00:38;27.40;81.10
44747;DHT22;30472;49.490;10.972;2023-05-29T12:03:05;27.90;85.40
44747;DHT22;30472;49.490;10.972;2023-05-29T12:05:32;27.80;89.80
44747;DHT22;30472;49.490;10.972;2023-05-29T12:07:58;28.00;88.90
44747;DHT22;30472;49.490;10.972;2023-05-29T12:10:27;28.00;90.70
44747;DHT22;30472;49.490;10.972;2023-05-29T12:12:54;27.40;89.30
44747;DHT22;30472;49.490;10.972;2023-05-29T12:15:21;27.90;83.90
44747;DHT22;30472;49.490;10.972;2023-05-29T12:17:50;27.80;85.30
44747;DHT22;30472;49.490;10.972;2023-05-29T12:20:18;27.80;80.90
44747;DHT22;30472;49.490;10.972;2023-05-29T12:22:45;28.40;80.90
44747;DHT22;30472;49.490;10.972;2023-05-29T12:27:38;28.40;80.90
44747;DHT22;30472;49.490;10.972;2023-05-29T12:30:09;28.20;78.70
44747;DHT22;30472;49.490;10.972;2023-05-29T12:32:39;28.40;82.10
44747;DHT22;30472;49.490;10.972;2023-05-29T12:35:16;28.00;78.90
44747;DHT22;30472;49.490;10.972;2023-05-29T12:40:19;27.80;79.00
44747;DHT22;30472;49.490;10.972;2023-05-29T12:42:48;27.90;78.30
44747;DHT22;30472;49.490;10.972;2023-05-29T12:45:15;28.00;80.60
44747;DHT22;30472;49.490;10.972;2023-05-29T12:47:57;28.30;79.60
44747;DHT22;30472;49.490;10.972;2023-05-29T12:50:31;28.80;80.80
44747;DHT22;30472;49.490;10.972;2023-05-29T12:52:58;28.30;78.40
44747;DHT22;30472;49.490;10.972;2023-05-29T12:55:25;28.40;80.90
44747;DHT22;30472;49.490;10.972;2023-05-29T12:57:51;28.50;80.90
44747;DHT22;30472;49.490;10.972;2023-05-29T13:00:17;28.60;78.30
44747;DHT22;30472;49.490;10.972;2023-05-29T13:02:44;28.50;80.30
44747;DHT22;30472;49.490;10.972;2023-05-29T13:05:10;28.90;81.00
44747;DHT22;30472;49.490;10.972;2023-05-29T13:07:36;28.70;80.50
44747;DHT22;30472;49.490;10.972;2023-05-29T13:10:01;28.30;79.90
44747;DHT22;30472;49.490;10.972;2023-05-29T13:12:27;28.10;79.60
44747;DHT22;30472;49.490;10.972;2023-05-29T13:14:53;28.40;80.40
44747;DHT22;30472;49.490;10.972;2023-05-29T13:17:21;28.70;80.80
44747;DHT22;30472;49.490;10.972;2023-05-29T13:19:47;28.90;82.50
44747;DHT22;30472;49.490;10.972;2023-05-29T13:22:12;28.70;82.40
44747;DHT22;30472;49.490;10.972;2023-05-29T13:24:38;28.50;81.90
44747;DHT22;30472;49.490;10.972;2023-05-29T13:27:04;28.40;84.90
44747;DHT22;30472;49.490;10.972;2023-05-29T13:29:30;28.20;83.10
44747;DHT22;30472;49.490;10.972;2023-05-29T13:31:56;28.40;79.90
44747;DHT22;30472;49.490;10.972;2023-05-29T13:34:22;28.40;80.70
44747;DHT22;30472;49.490;10.972;2023-05-29T13:36:51;28.60;81.10
44747;DHT22;30472;49.490;10.972;2023-05-29T13:39:16;28.50;79.60
44747;DHT22;30472;49.490;10.972;2023-05-29T13:41:42;28.40;79.30
44747;DHT22;30472;49.490;10.972;2023-05-29T13:44:07;28.00;80.90
44747;DHT22;30472;49.490;10.972;2023-05-29T13:46:33;28.40;80.00
44747;DHT22;30472;49.490;10.972;2023-05-29T13:48:58;28.50;80.80
44747;DHT22;30472;49.490;10.972;2023-05-29T13:51:24;28.30;78.10
44747;DHT22;30472;49.490;10.972;2023-05-29T13:53:49;28.30;77.70
44747;DHT22;30472;49.490;10.972;2023-05-29T13:56:15;28.40;79.30
44747;DHT22;30472;49.490;10.972;2023-05-29T13:58:41;28.10;77.00
44747;DHT22;30472;49.490;10.972;2023-05-29T14:01:06;28.00;78.00
44747;DHT22;30472;49.490;10.972;2023-05-29T14:03:32;28.00;77.10
44747;DHT22;30472;49.490;10.972;2023-05-29T14:05:57;28.20;78.00
44747;DHT22;30472;49.490;10.972;2023-05-29T14:08:23;28.40;78.40
44747;DHT22;30472;49.490;10.972;2023-05-29T14:10:48;28.50;78.30
44747;DHT22;30472;49.490;10.972;2023-05-29T14:13:16;28.20;76.80
44747;DHT22;30472;49.490;10.972;2023-05-29T14:15:42;27.80;77.90
44747;DHT22;30472;49.490;10.972;2023-05-29T14:18:07;28.10;78.10
44747;DHT22;30472;49.490;10.972;2023-05-29T14:20:33;28.20;80.60
44747;DHT22;30472;49.490;10.972;2023-05-29T14:22:59;28.00;82.70
44747;DHT22;30472;49.490;10.972;2023-05-29T14:25:24;28.10;83.20
44747;DHT22;30472;49.490;10.972;2023-05-29T14:27:50;28.00;84.60
44747;DHT22;30472;49.490;10.972;2023-05-29T14:30:15;28.10;84.20
44747;DHT22;30472;49.490;10.972;2023-05-29T14:32:41;28.20;82.90
44747;DHT22;30472;49.490;10.972;2023-05-29T14:35:09;27.70;84.40
44747;DHT22;30472;49.490;10.972;2023-05-29T14:37:34;27.50;84.30
44747;DHT22;30472;49.490;10.972;2023-05-29T14:40:00;27.30;84.90
44747;DHT22;30472;49.490;10.972;2023-05-29T14:42:26;27.50;82.80
44747;DHT22;30472;49.490;10.972;2023-05-29T14:44:52;27.60;80.20
44747;DHT22;30472;49.490;10.972;2023-05-29T14:47:17;27.80;83.20
44747;DHT22;30472;49.490;10.972;2023-05-29T14:49:44;27.80;85.00
44747;DHT22;30472;49.490;10.972;2023-05-29T14:52:10;27.60;85.20
44747;DHT22;30472;49.490;10.972;2023-05-29T14:54:35;27.50;84.40
44747;DHT22;30472;49.490;10.972;2023-05-29T14:57:01;27.60;84.80
44747;DHT22;30472;49.490;10.972;2023-05-29T14:59:27;27.60;85.30
44747;DHT22;30472;49.490;10.972;2023-05-29T15:01:52;27.50;85.00
44747;DHT22;30472;49.490;10.972;2023-05-29T15:04:19;27.70;85.60
44747;DHT22;30472;49.490;10.972;2023-05-29T15:06:45;27.40;85.40
44747;DHT22;30472;49.490;10.972;2023-05-29T15:09:11;27.70;86.90
44747;DHT22;30472;49.490;10.972;2023-05-29T15:11:36;27.70;85.80
44747;DHT22;30472;49.490;10.972;2023-05-29T15:14:02;27.60;86.70
44747;DHT22;30472;49.490;10.972;2023-05-29T15:16:27;27.50;85.40
44747;DHT22;30472;49.490;10.972;2023-05-29T15:18:53;27.10;85.40
44747;DHT22;30472;49.490;10.972;2023-05-29T15:21:18;27.10;86.90
44747;DHT22;30472;49.490;10.972;2023-05-29T15:23:44;27.20;85.70
44747;DHT22;30472;49.490;10.972;2023-05-29T15:26:10;27.00;86.10
44747;DHT22;30472;49.490;10.972;2023-05-29T15:28:35;27.00;86.30
44747;DHT22;30472;49.490;10.972;2023-05-29T15:31:01;27.00;87.90
44747;DHT22;30472;49.490;10.972;2023-05-29T15:33:27;26.70;86.90
44747;DHT22;30472;49.490;10.972;2023-05-29T15:35:53;26.30;88.90
44747;DHT22;30472;49.490;10.972;2023-05-29T15:38:18;26.30;88.20